Check out our new BloomSky Weather System.

Active alerts


No alerts


Thunder radar  blitzortung!


Rain radar more information rain snow radar


Visit our other weather sites:

Template documentation
and downloads

And another site



Weather Underground History page Text

Daily Summary for September 22, 2018 Units:  English    Metric   Both
« Previous Day
Next Day »
Daily Weekly Monthly Yearly Custom
  Current: High: Low: Average:
Temperature: 75.6 °F TemperatureF °F 73.4 °F 77.7 °F
Dew Point: 75.6 °F DewpointF °F 73.4 °F 77 °F
Humidity: 100 % Humidity % 81 % 98 %
Wind Speed: 0 mph WindSpeedMPH mph 0 mph 1.3 mph
Wind Gust: 1 mph WindSpeedGustMPH mph - -
Wind:Calm - - SSE
Pressure: 29.89 in PressureIn in 29.86 in -
Precipitation: 1.99 in      
Historical Graphs
 
 
Tabular Data for September 22, 2018
Time Temperature Dew Point Pressure Wind Wind Speed Wind Gust Humidity Rainfall Rate (Hourly)
TemperatureF °F DewpointF °F PressureIn in Calm     Humidity % HourlyPrecipIn in
00:04 77.7 °F 77.7 °F 29.93 in SE 1 mph 3 mph 100 % 0 in
00:09 77.7 °F 77.7 °F 29.93 in Calm   2 mph 100 % 0 in
00:14 77.9 °F 77.9 °F 29.94 in Calm   2 mph 100 % 0 in
00:19 77.9 °F 77.9 °F 29.94 in ESE 1 mph 2 mph 100 % 0 in
00:24 77.9 °F 77.9 °F 29.93 in ESE 1 mph 2 mph 100 % 0 in
00:29 77.9 °F 77.9 °F 29.93 in Calm   2 mph 100 % 0 in
00:34 77.9 °F 77.9 °F 29.93 in SE 1 mph 2 mph 100 % 0 in
00:39 78.1 °F 78.1 °F 29.93 in East 1 mph 2 mph 100 % 0 in
00:44 78.1 °F 78.1 °F 29.93 in Calm   2 mph 100 % 0 in
00:49 78.1 °F 78.1 °F 29.93 in Calm   2 mph 100 % 0 in
00:54 78.1 °F 78.1 °F 29.92 in SE 1 mph 2 mph 100 % 0 in
00:59 78.1 °F 78.1 °F 29.92 in Calm   2 mph 100 % 0 in
01:04 78.1 °F 78.1 °F 29.92 in Calm   2 mph 100 % 0 in
01:09 78.1 °F 78.1 °F 29.92 in Calm   2 mph 100 % 0 in
01:14 78.1 °F 78.1 °F 29.92 in SE 1 mph 2 mph 100 % 0 in
01:19 78.1 °F 78.1 °F 29.92 in East 1 mph 2 mph 100 % 0 in
01:24 78.1 °F 78.1 °F 29.92 in ESE 2 mph 2 mph 100 % 0 in
01:29 78.3 °F 78.3 °F 29.91 in East 1 mph 2 mph 100 % 0 in
01:34 78.3 °F 78.3 °F 29.91 in East 1 mph 2 mph 100 % 0 in
01:39 78.3 °F 78.3 °F 29.91 in ESE 2 mph 2 mph 100 % 0 in
01:44 78.3 °F 78.3 °F 29.91 in ESE 1 mph 2 mph 100 % 0 in
01:49 78.3 °F 78.3 °F 29.90 in ENE 2 mph 2 mph 100 % 0 in
01:54 78.3 °F 78.3 °F 29.90 in ESE 3 mph 4 mph 100 % 0 in
01:59 78.4 °F 78.4 °F 29.90 in ESE 1 mph 4 mph 100 % 0 in
02:04 78.4 °F 78.4 °F 29.90 in ESE 3 mph 4 mph 100 % 0 in
02:09 78.4 °F 78.4 °F 29.90 in ESE 3 mph 4 mph 100 % 0 in
02:14 78.6 °F 78.6 °F 29.90 in SE 1 mph 4 mph 100 % 0 in
02:19 78.6 °F 78.6 °F 29.89 in SSE 1 mph 4 mph 100 % 0 in
02:24 78.6 °F 78.6 °F 29.89 in SE 1 mph 4 mph 100 % 0 in
02:29 78.6 °F 78.6 °F 29.89 in South 1 mph 4 mph 100 % 0 in
02:34 78.6 °F 78.6 °F 29.89 in SSW 1 mph 3 mph 100 % 0 in
02:39 78.6 °F 78.6 °F 29.89 in SSE 1 mph 2 mph 100 % 0 in
02:44 78.4 °F 78.4 °F 29.89 in SSW 1 mph 2 mph 100 % 0 in
02:49 78.4 °F 78.4 °F 29.89 in Calm   2 mph 100 % 0 in
02:54 78.4 °F 78.4 °F 29.89 in Calm   2 mph 100 % 0 in
02:59 78.3 °F 78.3 °F 29.89 in SSE 1 mph 2 mph 100 % 0 in
03:04 78.3 °F 78.3 °F 29.89 in SE 1 mph 2 mph 100 % 0 in
03:09 78.3 °F 78.3 °F 29.89 in SSE 1 mph 2 mph 100 % 0 in
03:14 78.3 °F 78.3 °F 29.89 in Calm   1 mph 100 % 0 in
03:19 78.3 °F 78.3 °F 29.88 in Calm   1 mph 100 % 0 in
03:24 78.1 °F 78.1 °F 29.89 in Calm   1 mph 100 % 0 in
03:29 78.1 °F 78.1 °F 29.89 in Calm   1 mph 100 % 0 in
03:34 78.1 °F 78.1 °F 29.88 in Calm   1 mph 100 % 0 in
03:39 78.1 °F 78.1 °F 29.88 in Calm   1 mph 100 % 0 in
03:44 78.1 °F 78.1 °F 29.88 in Calm   1 mph 100 % 0 in
03:49 78.1 °F 78.1 °F 29.88 in Calm   1 mph 100 % 0 in
03:54 78.1 °F 78.1 °F 29.88 in SSE 1 mph 1 mph 100 % 0 in
03:59 78.1 °F 78.1 °F 29.88 in ESE 2 mph 1 mph 100 % 0 in
04:04 78.3 °F 78.3 °F 29.88 in Calm   2 mph 100 % 0 in
04:09 78.3 °F 78.3 °F 29.88 in SSE 2 mph 2 mph 100 % 0 in
04:14 78.3 °F 78.3 °F 29.88 in ESE 1 mph 2 mph 100 % 0 in
04:19 78.4 °F 78.4 °F 29.88 in Calm   3 mph 100 % 0 in
04:24 78.4 °F 78.4 °F 29.88 in Calm   3 mph 100 % 0 in
04:29 78.4 °F 78.4 °F 29.88 in Calm   3 mph 100 % 0 in
04:34 78.4 °F 78.4 °F 29.88 in Calm   2 mph 100 % 0 in
04:39 78.4 °F 78.4 °F 29.88 in Calm   2 mph 100 % 0 in
04:44 78.4 °F 78.4 °F 29.88 in Calm   2 mph 100 % 0 in
04:49 78.4 °F 78.4 °F 29.88 in Calm   2 mph 100 % 0 in
04:54 78.4 °F 78.4 °F 29.88 in Calm   1 mph 100 % 0 in
04:59 78.4 °F 78.4 °F 29.88 in Calm   1 mph 100 % 0 in
05:04 78.4 °F 78.4 °F 29.88 in Calm   1 mph 100 % 0 in
05:09 78.4 °F 78.4 °F 29.88 in Calm   1 mph 100 % 0 in
05:14 78.3 °F 78.3 °F 29.88 in Calm   1 mph 100 % 0 in
05:19 78.3 °F 78.3 °F 29.88 in Calm   1 mph 100 % 0 in
05:24 78.4 °F 78.4 °F 29.88 in Calm     100 % 0 in
05:29 78.4 °F 78.4 °F 29.88 in Calm     100 % 0 in
05:34 78.6 °F 78.6 °F 29.89 in ESE 2 mph 1 mph 100 % 0 in
05:39 78.8 °F 78.8 °F 29.89 in Calm   2 mph 100 % 0 in
05:44 79 °F 79 °F 29.89 in Calm   2 mph 100 % 0 in
05:49 79 °F 79 °F 29.89 in Calm   2 mph 100 % 0 in
05:54 79.2 °F 79.2 °F 29.89 in ESE 1 mph 1 mph 100 % 0 in
05:59 79.2 °F 79.2 °F 29.88 in Calm   2 mph 100 % 0 in
06:04 79.2 °F 79.2 °F 29.88 in Calm   2 mph 100 % 0 in
06:09 79.2 °F 79.2 °F 29.89 in Calm   2 mph 100 % 0 in
06:14 79.2 °F 79.2 °F 29.89 in Calm   2 mph 100 % 0 in
06:19 79.2 °F 79.2 °F 29.89 in Calm   1 mph 100 % 0 in
06:24 79 °F 79 °F 29.89 in Calm   1 mph 100 % 0 in
06:29 79 °F 79 °F 29.89 in Calm   1 mph 100 % 0 in
06:34 79 °F 79 °F 29.89 in Calm   1 mph 100 % 0 in
06:39 79 °F 79 °F 29.89 in ESE 1 mph 1 mph 100 % 0 in
06:44 79 °F 79 °F 29.89 in Calm   1 mph 100 % 0 in
06:49 79 °F 79 °F 29.89 in Calm   1 mph 100 % 0 in
06:54 79 °F 79 °F 29.89 in Calm   1 mph 100 % 0 in
06:59 79 °F 79 °F 29.89 in ESE 1 mph 1 mph 100 % 0 in
07:04 79 °F 79 °F 29.90 in Calm   1 mph 100 % 0 in
07:09 79 °F 79 °F 29.89 in Calm   1 mph 100 % 0 in
07:14 79 °F 79 °F 29.90 in Calm   1 mph 100 % 0 in
07:19 79 °F 79 °F 29.90 in Calm   1 mph 100 % 0 in
07:24 79.2 °F 79.2 °F 29.90 in Calm   1 mph 100 % 0 in
07:29 79.2 °F 79.2 °F 29.90 in SSE 1 mph 1 mph 100 % 0 in
07:34 79.2 °F 79.2 °F 29.90 in SSE 1 mph 1 mph 100 % 0 in
07:39 79.2 °F 79.2 °F 29.89 in SE 1 mph 1 mph 100 % 0 in
07:44 79.2 °F 79.2 °F 29.90 in Calm   2 mph 100 % 0 in
07:49 79.3 °F 79.3 °F 29.90 in SE 1 mph 3 mph 100 % 0 in
07:54 79.3 °F 79.3 °F 29.90 in SSE 2 mph 3 mph 100 % 0 in
07:59 79.5 °F 79.5 °F 29.90 in ESE 1 mph 3 mph 100 % 0 in
08:04 79.5 °F 79.5 °F 29.91 in SE 2 mph 3 mph 100 % 0 in
08:09 79.5 °F 79.5 °F 29.91 in Calm   4 mph 100 % 0 in
08:14 79.7 °F 79.7 °F 29.91 in South 1 mph 4 mph 100 % 0 in
08:19 79.9 °F 79.9 °F 29.91 in Calm   4 mph 100 % 0 in
08:24 80.1 °F 80.1 °F 29.90 in SSE 1 mph 3 mph 100 % 0 in
08:29 80.1 °F 80.1 °F 29.91 in ESE 2 mph 2 mph 100 % 0 in
08:34 80.2 °F 80.2 °F 29.91 in SSE 1 mph 3 mph 100 % 0 in
08:39 80.6 °F 80.6 °F 29.91 in South 2 mph 3 mph 100 % 0 in
08:44 80.8 °F 80.8 °F 29.91 in South 3 mph 3 mph 100 % 0 in
08:49 81 °F 81 °F 29.91 in South 3 mph 3 mph 100 % 0 in
08:54 81 °F 81 °F 29.91 in South 2 mph 3 mph 100 % 0 in
08:59 81.1 °F 81.1 °F 29.91 in SSE 1 mph 3 mph 100 % 0 in
09:04 81.3 °F 81.3 °F 29.91 in SSE 2 mph 4 mph 100 % 0 in
09:09 81.3 °F 81.3 °F 29.91 in SSW 5 mph 6 mph 100 % 0 in
09:14 81.3 °F 81 °F 29.91 in SSE 3 mph 6 mph 99 % 0 in
09:19 81.5 °F 81.1 °F 29.91 in SE 5 mph 7 mph 99 % 0 in
09:24 81.7 °F 81.3 °F 29.91 in SSE 1 mph 7 mph 99 % 0 in
09:29 81.7 °F 81.1 °F 29.91 in SSE 2 mph 7 mph 98 % 0 in
09:34 81.9 °F 81.3 °F 29.91 in SSE 2 mph 7 mph 98 % 0 in
09:39 81.9 °F 81 °F 29.91 in SSE 3 mph 6 mph 97 % 0 in
09:44 82 °F 81.1 °F 29.91 in SSE 4 mph 7 mph 97 % 0 in
09:49 82.2 °F 81.3 °F 29.91 in SSW 1 mph 7 mph 97 % 0 in
09:54 82.6 °F 81.7 °F 29.91 in Calm   7 mph 97 % 0 in
09:59 82.8 °F 81.5 °F 29.91 in South 3 mph 6 mph 96 % 0 in
10:04 83.1 °F 81.5 °F 29.91 in NNW 2 mph 6 mph 95 % 0 in
10:09 83.1 °F 81.1 °F 29.91 in SSE 1 mph 5 mph 94 % 0 in
10:14 83.3 °F 81.1 °F 29.91 in SSW 2 mph 7 mph 93 % 0 in
10:19 83.5 °F 81.5 °F 29.91 in SSW 1 mph 7 mph 94 % 0 in
10:24 83.7 °F 81.5 °F 29.91 in SE 5 mph 7 mph 93 % 0 in
10:29 83.7 °F 81.1 °F 29.91 in SE 6 mph 8 mph 92 % 0 in
10:34 83.7 °F 80.8 °F 29.91 in SE 4 mph 8 mph 91 % 0 in
10:39 83.5 °F 80.6 °F 29.91 in ESE 3 mph 8 mph 91 % 0 in
10:44 82.9 °F 79.7 °F 29.91 in SE 5 mph 8 mph 90 % 0 in
10:49 82 °F 78.8 °F 29.91 in East 3 mph 7 mph 90 % 0 in
10:54 81.9 °F 78.6 °F 29.91 in SE 3 mph 10 mph 90 % 0 in
10:59 81.9 °F 79 °F 29.91 in ESE 2 mph 10 mph 91 % 0 in
11:04 81.9 °F 79 °F 29.91 in SSE 3 mph 10 mph 91 % 0 in
11:09 82.2 °F 79.7 °F 29.91 in SE 2 mph 6 mph 92 % 0 in
11:14 82.9 °F 80.1 °F 29.90 in South 3 mph 6 mph 91 % 0 in
11:19 83.5 °F 79.9 °F 29.91 in SSE 3 mph 5 mph 89 % 0 in
11:24 83.8 °F 79.9 °F 29.90 in SE 1 mph 7 mph 88 % 0 in
11:29 84.2 °F 80.2 °F 29.91 in SE 4 mph 7 mph 88 % 0 in
11:34 84.6 °F 80.2 °F 29.90 in East 4 mph 7 mph 87 % 0 in
11:39 84.9 °F 80.6 °F 29.91 in South 5 mph 6 mph 87 % 0 in
11:44 85.3 °F 80.6 °F 29.91 in South 5 mph 8 mph 86 % 0 in
11:49 85.1 °F 80.4 °F 29.91 in East 3 mph 9 mph 86 % 0 in
11:54 85.1 °F 80.4 °F 29.91 in SE 3 mph 9 mph 86 % 0 in
11:59 85.3 °F 80.6 °F 29.91 in ESE 3 mph 9 mph 86 % 0 in
12:04 85.3 °F 80.2 °F 29.90 in SE 7 mph 8 mph 85 % 0 in
12:09 85.3 °F 80.6 °F 29.90 in SE 5 mph 8 mph 86 % 0 in
12:14 85.3 °F 81 °F 29.89 in East 3 mph 9 mph 87 % 0 in
12:19 85.5 °F 80.8 °F 29.89 in Calm   9 mph 86 % 0 in
12:24 85.8 °F 80.4 °F 29.89 in ESE 6 mph 9 mph 84 % 0 in
12:29 86 °F 80.6 °F 29.89 in ESE 5 mph 11 mph 84 % 0 in
12:34 86.4 °F 81 °F 29.89 in SSW 3 mph 11 mph 84 % 0 in
12:39 86.4 °F 80.2 °F 29.89 in ESE 7 mph 11 mph 82 % 0 in
12:44 86.4 °F 80.6 °F 29.90 in South 3 mph 10 mph 83 % 0 in
12:49 86.5 °F 80.8 °F 29.89 in SSW 3 mph 10 mph 83 % 0 in
12:54 86.4 °F 80.6 °F 29.89 in ESE 8 mph 10 mph 83 % 0 in
12:59 85.8 °F 80.1 °F 29.90 in Calm   8 mph 83 % 0 in
13:04 84.6 °F 78.1 °F 29.90 in West 3 mph 8 mph 81 % 0 in
13:09 82.4 °F 76.6 °F 29.90 in NW 4 mph 8 mph 83 % 0 in
13:14 81.1 °F 76.5 °F 29.90 in NW 6 mph 8 mph 86 % 0 in
13:19 80.6 °F 76.6 °F 29.90 in NW 4 mph 8 mph 88 % 0 in
13:24 80.1 °F 76.5 °F 29.90 in NNW 2 mph 8 mph 89 % 0 in
13:29 79.7 °F 76.1 °F 29.90 in NNW 4 mph 6 mph 89 % 0 in
13:34 79.5 °F 76.6 °F 29.89 in WNW 4 mph 6 mph 91 % 0 in
13:39 79.3 °F 76.5 °F 29.89 in Calm   7 mph 91 % 0 in
13:44 79.3 °F 76.5 °F 29.90 in WSW 2 mph 7 mph 91 % 0 in
13:49 78.8 °F 75.9 °F 29.90 in SSW 1 mph 8 mph 91 % 0 in
13:54 77.9 °F 75.4 °F 29.91 in West 1 mph 8 mph 92 % 0.03 in
13:59 75.9 °F 74.7 °F 29.90 in West 1 mph 15 mph 96 % 0.3 in
14:04 74.7 °F 74.1 °F 29.90 in NW 2 mph 15 mph 98 % 0.66 in
14:09 74.5 °F 74.1 °F 29.89 in WNW 5 mph 15 mph 99 % 1 in
14:14 74.5 °F 74.5 °F 29.89 in East 1 mph 5 mph 100 % 1.25 in
14:19 74.3 °F 74.3 °F 29.89 in Calm   5 mph 100 % 1.32 in
14:24 74.5 °F 74.5 °F 29.89 in Calm   5 mph 100 % 1.38 in
14:29 74.7 °F 74.7 °F 29.89 in Calm   4 mph 100 % 1.39 in
14:34 74.8 °F 74.8 °F 29.88 in SSE 1 mph 1 mph 100 % 1.39 in
14:39 74.8 °F 74.8 °F 29.88 in South 1 mph 1 mph 100 % 1.41 in
14:44 74.8 °F 74.8 °F 29.89 in Calm   2 mph 100 % 1.49 in
14:49 75 °F 75 °F 29.90 in South 7 mph 3 mph 100 % 1.59 in
14:54 75.4 °F 75.4 °F 29.89 in South 10 mph 9 mph 100 % 1.58 in
14:59 74.5 °F 74.5 °F 29.89 in South 7 mph 12 mph 100 % 1.32 in
15:04 73.6 °F 73.6 °F 29.87 in SSE 5 mph 12 mph 100 % 0.98 in
15:09 73.4 °F 73.4 °F 29.87 in ESE 1 mph 12 mph 100 % 0.75 in
15:14 73.6 °F 73.6 °F 29.88 in SSW 2 mph 10 mph 100 % 0.52 in
15:19 73.6 °F 73.6 °F 29.88 in Calm   9 mph 100 % 0.48 in
15:24 73.9 °F 73.9 °F 29.87 in Calm   5 mph 100 % 0.43 in
15:29 74.1 °F 74.1 °F 29.87 in Calm   3 mph 100 % 0.42 in
15:34 73.9 °F 73.9 °F 29.88 in Calm   3 mph 100 % 0.43 in
15:39 73.9 °F 73.9 °F 29.88 in SSE 2 mph 6 mph 100 % 0.41 in
15:44 73.9 °F 73.9 °F 29.88 in SW 3 mph 7 mph 100 % 0.32 in
15:49 74.1 °F 74.1 °F 29.88 in Calm   7 mph 100 % 0.25 in
15:54 74.3 °F 74.3 °F 29.87 in Calm   7 mph 100 % 0.25 in
15:59 74.5 °F 74.5 °F 29.86 in East 1 mph 6 mph 100 % 0.25 in
16:04 74.5 °F 74.5 °F 29.86 in Calm   3 mph 100 % 0.21 in
16:09 74.5 °F 74.5 °F 29.86 in Calm   2 mph 100 % 0.11 in
16:14 74.5 °F 74.5 °F 29.86 in SSE 2 mph 2 mph 100 % 0.09 in
16:19 74.3 °F 74.3 °F 29.86 in SSE 2 mph 3 mph 100 % 0.09 in
16:24 74.5 °F 74.5 °F 29.86 in ESE 2 mph 4 mph 100 % 0.09 in
16:29 74.3 °F 74.3 °F 29.86 in ESE 2 mph 4 mph 100 % 0.1 in
16:34 74.5 °F 74.5 °F 29.87 in SE 1 mph 4 mph 100 % 0.1 in
16:39 74.5 °F 74.5 °F 29.87 in Calm   3 mph 100 % 0.11 in
16:44 74.5 °F 74.5 °F 29.86 in Calm   3 mph 100 % 0.11 in
16:49 74.5 °F 74.5 °F 29.86 in East 1 mph 3 mph 100 % 0.11 in
16:54 74.1 °F 74.1 °F 29.86 in SSE 1 mph 3 mph 100 % 0.1 in
16:59 74.3 °F 74.3 °F 29.86 in East 2 mph 3 mph 100 % 0.09 in
17:04 74.1 °F 74.1 °F 29.86 in SE 1 mph 3 mph 100 % 0.09 in
17:09 74.1 °F 74.1 °F 29.86 in ENE 3 mph 3 mph 100 % 0.09 in
17:14 74.1 °F 74.1 °F 29.86 in Calm   3 mph 100 % 0.08 in
17:19 74.1 °F 74.1 °F 29.86 in ESE 2 mph 3 mph 100 % 0.08 in
17:24 74.1 °F 74.1 °F 29.86 in Calm   3 mph 100 % 0.08 in
17:29 74.1 °F 74.1 °F 29.86 in Calm   3 mph 100 % 0.07 in
17:34 74.1 °F 74.1 °F 29.86 in Calm   2 mph 100 % 0.06 in
17:39 74.3 °F 74.3 °F 29.87 in ESE 1 mph 3 mph 100 % 0.05 in
17:44 74.3 °F 74.3 °F 29.87 in SE 2 mph 3 mph 100 % 0.04 in
17:49 74.5 °F 74.5 °F 29.87 in South 1 mph 3 mph 100 % 0.03 in
17:54 74.5 °F 74.5 °F 29.87 in SE 1 mph 3 mph 100 % 0.02 in
17:59 74.5 °F 74.5 °F 29.87 in East 2 mph 5 mph 100 % 0.03 in
18:04 74.5 °F 74.5 °F 29.86 in SSE 2 mph 5 mph 100 % 0.02 in
18:09 74.5 °F 74.5 °F 29.86 in East 2 mph 5 mph 100 % 0.02 in
18:14 74.1 °F 74.1 °F 29.86 in SE 2 mph 4 mph 100 % 0.02 in
18:19 74.1 °F 74.1 °F 29.86 in SE 1 mph 5 mph 100 % 0.02 in
18:24 74.3 °F 74.3 °F 29.86 in Calm   5 mph 100 % 0.01 in
18:29 74.3 °F 74.3 °F 29.86 in SE 1 mph 5 mph 100 % 0.01 in
18:34 74.1 °F 74.1 °F 29.86 in ESE 1 mph 3 mph 100 % 0.01 in
18:39 74.3 °F 74.3 °F 29.86 in SE 1 mph 4 mph 100 % 0.01 in
18:44 74.3 °F 74.3 °F 29.86 in Calm   4 mph 100 % 0.01 in
18:49 74.5 °F 74.5 °F 29.86 in Calm   4 mph 100 % 0.01 in
18:54 74.7 °F 74.7 °F 29.86 in SE 1 mph 2 mph 100 % 0.01 in
18:59 74.5 °F 74.5 °F 29.86 in Calm   3 mph 100 % 0 in
19:04 74.7 °F 74.7 °F 29.86 in Calm   3 mph 100 % 0 in
19:09 74.7 °F 74.7 °F 29.86 in SE 1 mph 3 mph 100 % 0 in
19:14 74.7 °F 74.7 °F 29.86 in Calm   2 mph 100 % 0 in
19:19 74.7 °F 74.7 °F 29.86 in Calm   2 mph 100 % 0 in
19:24 74.7 °F 74.7 °F 29.86 in SE 1 mph 2 mph 100 % 0 in
19:29 74.7 °F 74.7 °F 29.86 in SE 2 mph 3 mph 100 % 0 in
19:34 74.7 °F 74.7 °F 29.86 in ESE 1 mph 4 mph 100 % 0 in
19:39 74.7 °F 74.7 °F 29.86 in SE 2 mph 4 mph 100 % 0 in
19:44 74.7 °F 74.7 °F 29.86 in SE 1 mph 4 mph 100 % 0 in
19:49 74.7 °F 74.7 °F 29.86 in East 2 mph 4 mph 100 % 0 in
19:54 74.7 °F 74.7 °F 29.86 in SE 2 mph 4 mph 100 % 0 in
19:59 74.7 °F 74.7 °F 29.86 in ESE 1 mph 4 mph 100 % 0 in
20:04 74.7 °F 74.7 °F 29.86 in Calm   4 mph 100 % 0 in
20:09 74.7 °F 74.7 °F 29.86 in Calm   3 mph 100 % 0 in
20:14 74.7 °F 74.7 °F 29.86 in SE 1 mph 3 mph 100 % 0 in
20:19 74.7 °F 74.7 °F 29.86 in Calm   2 mph 100 % 0 in
20:24 74.7 °F 74.7 °F 29.86 in Calm   2 mph 100 % 0 in
20:29 74.7 °F 74.7 °F 29.86 in Calm   1 mph 100 % 0 in
20:34 74.7 °F 74.7 °F 29.86 in Calm   1 mph 100 % 0 in
20:39 74.5 °F 74.5 °F 29.87 in SE 1 mph 1 mph 100 % 0 in
20:44 74.5 °F 74.5 °F 29.87 in Calm   1 mph 100 % 0 in
20:49 74.7 °F 74.7 °F 29.87 in Calm   2 mph 100 % 0 in
20:54 74.5 °F 74.5 °F 29.87 in Calm   2 mph 100 % 0 in
20:59 74.5 °F 74.5 °F 29.87 in Calm   2 mph 100 % 0 in
21:04 74.5 °F 74.5 °F 29.88 in Calm   1 mph 100 % 0 in
21:09 74.5 °F 74.5 °F 29.88 in Calm     100 % 0 in
21:14 74.5 °F 74.5 °F 29.88 in Calm   1 mph 100 % 0 in
21:19 74.7 °F 74.7 °F 29.88 in Calm   1 mph 100 % 0 in
21:24 74.7 °F 74.7 °F 29.88 in Calm   1 mph 100 % 0 in
21:29 74.7 °F 74.7 °F 29.88 in Calm     100 % 0 in
21:34 74.8 °F 74.8 °F 29.88 in Calm   1 mph 100 % 0 in
21:39 74.8 °F 74.8 °F 29.88 in Calm   1 mph 100 % 0 in
21:44 74.8 °F 74.8 °F 29.89 in Calm   1 mph 100 % 0 in
21:49 74.8 °F 74.8 °F 29.89 in SSE 1 mph 2 mph 100 % 0 in
21:54 74.8 °F 74.8 °F 29.89 in ESE 1 mph 2 mph 100 % 0 in
21:59 74.8 °F 74.8 °F 29.88 in Calm   2 mph 100 % 0 in
22:04 75 °F 75 °F 29.89 in Calm   2 mph 100 % 0 in
22:09 75 °F 75 °F 29.89 in SE 1 mph 2 mph 100 % 0 in
22:14 75 °F 75 °F 29.89 in Calm   2 mph 100 % 0 in
22:19 75 °F 75 °F 29.89 in Calm   2 mph 100 % 0 in
22:24 75 °F 75 °F 29.89 in Calm   2 mph 100 % 0 in
22:29 75.2 °F 75.2 °F 29.88 in SE 1 mph 1 mph 100 % 0 in
22:34 75.4 °F 75.4 °F 29.89 in Calm   1 mph 100 % 0 in
22:39 75.4 °F 75.4 °F 29.89 in SE 1 mph 2 mph 100 % 0 in
22:44 75.4 °F 75.4 °F 29.89 in Calm   2 mph 100 % 0 in
22:49 75.4 °F 75.4 °F 29.89 in Calm   2 mph 100 % 0 in
22:54 75.4 °F 75.4 °F 29.89 in Calm   1 mph 100 % 0 in
22:59 75.4 °F 75.4 °F 29.89 in Calm   1 mph 100 % 0 in
23:04 75.6 °F 75.6 °F 29.89 in Calm   1 mph 100 % 0 in
Spring, Texas: Villages of Bridgestone
Compliments of Weather Underground - 2.75 mb

Script developed by  Jim McMurry - jmcmurry@mwt.net Adapted for the template by  Wim van der Kuil - Leuven-Template.eu

You find our weather info also at:

UK Metoffice

WeatherCloud

Weather Underground

Mid-South Weather Network

AWEKAS

Citizen Weather Observer Program (CWOP)

HAMweather, WeatherForYou, PWS Weather

Equipment we use:

Weather-station
Davis Vantage Vue

Weather-program
Meteohub

Weather-server
Debian 7.9 x86 (Guest)

Provider
DreamHost

Davis Vantage Vue

Meteohub

Debian 7.9 x86 (Guest)

DreamHost